Fort Walton Beach, FL

1:52 PM CST on December 28, 2014 (GMT -0600)
Eglin Air Force Base | Change Station
CLOSE
Current Station
Airport
Location: Valparaiso,
Elevation: 85 ft
Nearby Weather Stations

Elev 85 ft 30.48 °N, 86.53 °W | Updated 19 minutes ago

Mostly Cloudy
Mostly Cloudy
73 °F
Feels Like 73 °F
N
6
Wind Variable Wind from SW

Today
High -- | Low -- °F
--% Chance of Precip.
Yesterday
High -- | Low -- °F
Precip. -- in
6:42 AM 4:54 PM
Waxing Crescent, 51% visible
Pressure 30.03 in
Visibility 10.0 miles
Clouds Few 800 ft
Scattered Clouds 1400 ft
Mostly Cloudy 3200 ft
Mostly Cloudy 13000 ft
Mostly Cloudy 25000 ft
Dew Point 68 °F
Humidity 83%
Rainfall 0.00 in
Snow Depth Not available.
UV 2 out of 12
Pollen 1.30 out of 12
Air Quality Not available.
Flu Activity Not available.
SPECI KVPS 281933Z 22005KT 10SM FEW008 SCT014 BKN032 BKN130 BKN250 23/20 A3003 RMK AO2A SCT014 V BKN $

More Conditions Fewer Conditions

Pressure 30.03 in
Visibility 10.0 miles
Clouds Few 800 ft
Scattered Clouds 1400 ft
Mostly Cloudy 3200 ft
Mostly Cloudy 13000 ft
Mostly Cloudy 25000 ft
Dew Point 68 °F
Humidity 83%
Rainfall 0.00 in
Snow Depth Not available.
UV 2 out of 12
Pollen 1.30 out of 12
Air Quality Not available.
Flu Activity Not available.
SPECI KVPS 281933Z 22005KT 10SM FEW008 SCT014 BKN032 BKN130 BKN250 23/20 A3003 RMK AO2A SCT014 V BKN $

More Conditions Fewer Conditions

10-Day Weather Forecast

Almanac

Astronomy

Dec. 28, 2014 Rise Set
Actual Time
Civil Twilight
Nautical Twilight
Astronomical Twilight
Moon
Length of Visible Light
Length of Day
Tomorrow will be .
, % of the Moon is Illuminated

Today's Extremes

State Highs State Lows

Community

WunderPhotos

Upload Photos

1,781,402 photos uploaded!

WunderBlogs® & News

Nearby

Air Quality

  Air Quality AQ Index Pollutant
Not available.

Snow Depth

Station Depth Elevation

Earthquake Activity

City Distance Mag. Time & Date
Minimum magnitude displayed is 2.5.

Coastal Water Temperatures

Place Temperature

Nearby Weather Stations